Time;durP1;ratioP1;P1;durP2;ratioP2;P2;SDS_P1;SDS_P2;PMS_P1;PMS_P2;Temp;Humidity;BMP_temperature;BMP_pressure;BME280_temperature;BME280_humidity;BME280_pressure;Samples;Min_cycle;Max_cycle;Signal;HPM_P1;HPM_P2
2022/01/23 00:03:24;;;;;;;14.02;8.95;;;-0.30;99.90;;;;;;6108479;29;20071;-87
2022/01/23 00:06:25;;;;;;;13.75;8.55;;;1.00;99.90;;;;;;6085766;29;20423;-87
2022/01/23 00:09:26;;;;;;;15.10;8.48;;;0.00;99.90;;;;;;6077238;29;20096;-84
2022/01/23 00:12:29;;;;;;;14.50;9.10;;;0.40;99.90;;;;;;6074515;29;20048;-84
2022/01/23 00:18:50;;;;;;;11.88;8.07;;;-0.10;99.90;;;;;;6102931;29;20067;-85
2022/01/23 00:21:53;;;;;;;15.20;9.57;;;-0.70;99.90;;;;;;6082394;29;20032;-87
2022/01/23 00:31:33;;;;;;;11.95;8.27;;;-0.30;99.90;;;;;;6103614;29;20039;-86
2022/01/23 00:34:34;;;;;;;12.88;8.30;;;-0.90;99.90;;;;;;6084639;29;20063;-84
2022/01/23 00:37:34;;;;;;;14.52;9.48;;;0.00;99.90;;;;;;6099750;29;20474;-86
2022/01/23 00:40:36;;;;;;;11.55;8.27;;;0.30;99.90;;;;;;6149915;29;20035;-85
2022/01/23 00:43:40;;;;;;;11.93;8.32;;;-0.40;99.90;;;;;;6150007;29;20027;-84
2022/01/23 00:46:48;;;;;;;14.07;8.85;;;-0.50;99.90;;;;;;6134226;29;20242;-85
2022/01/23 00:49:49;;;;;;;14.77;8.88;;;1.10;99.90;;;;;;6149743;29;20690;-85
2022/01/23 00:52:49;;;;;;;14.82;8.10;;;1.70;99.90;;;;;;6149524;28;20027;-86
2022/01/23 00:55:50;;;;;;;12.35;8.70;;;1.40;99.90;;;;;;6133651;29;20110;-85
2022/01/23 00:58:51;;;;;;;12.88;8.77;;;0.90;99.90;;;;;;6133865;29;20039;-86
2022/01/23 01:01:51;;;;;;;14.55;9.25;;;1.20;99.90;;;;;;6149440;29;20596;-87
2022/01/23 01:04:52;;;;;;;13.63;8.80;;;-0.40;99.90;;;;;;6134019;29;20086;-87
2022/01/23 01:07:56;;;;;;;15.20;8.93;;;0.10;99.90;;;;;;6149859;29;20035;-86
2022/01/23 01:30:07;;;;;;;13.85;9.13;;;1.50;99.90;;;;;;6157982;28;20035;-86
2022/01/23 01:30:53;;;;;;;12.02;8.60;;;-0.40;99.90;;;;;;6159670;28;20034;-86
2022/01/23 01:36:56;;;;;;;14.40;8.48;;;0.80;99.90;;;;;;6157086;28;20627;-86
2022/01/23 01:39:57;;;;;;;11.27;8.45;;;1.00;99.90;;;;;;6157104;28;20027;-87
2022/01/23 01:42:57;;;;;;;14.02;8.15;;;0.30;99.90;;;;;;6156852;28;20038;-85
2022/01/23 01:45:58;;;;;;;14.10;8.73;;;1.30;99.90;;;;;;6156670;28;20027;-87
2022/01/23 01:48:58;;;;;;;15.85;7.95;;;2.40;99.90;;;;;;6156402;28;20512;-85
2022/01/23 01:52:00;;;;;;;14.75;8.80;;;2.10;99.90;;;;;;6140217;28;20031;-86
2022/01/23 01:55:05;;;;;;;13.32;8.43;;;1.20;99.90;;;;;;6156369;28;20027;-85
2022/01/23 01:58:06;;;;;;;11.18;7.53;;;0.60;99.90;;;;;;6156210;28;20038;-85
2022/01/23 02:10:36;;;;;;;13.38;8.30;;;0.80;99.90;;;;;;6158541;28;20428;-88
2022/01/23 02:56:38;;;;;;;9.55;6.40;;;2.10;99.90;;;;;;6156495;28;20513;-86
2022/01/23 02:59:40;;;;;;;11.95;6.60;;;2.60;99.90;;;;;;6155065;28;20041;-87
2022/01/23 03:02:45;;;;;;;10.90;6.83;;;1.10;99.90;;;;;;6138568;28;20643;-90
2022/01/23 03:05:47;;;;;;;11.38;6.65;;;1.90;99.90;;;;;;6154456;28;20093;-86
2022/01/23 03:15:15;;;;;;;8.52;5.88;;;2.00;99.90;;;;;;6155381;28;20113;-86
2022/01/23 03:31:23;;;;;;;6.53;4.75;;;2.30;99.90;;;;;;6157195;28;20042;-87
2022/01/23 03:34:26;;;;;;;7.45;4.72;;;3.10;99.90;;;;;;6140066;28;20109;-86
2022/01/23 03:37:26;;;;;;;7.30;5.03;;;2.60;99.90;;;;;;6154330;28;20779;-86
2022/01/23 03:40:27;;;;;;;6.95;5.20;;;3.00;99.90;;;;;;6138046;28;20029;-86
2022/01/23 03:43:32;;;;;;;7.65;5.40;;;;;;;;;;6141659;28;20485;-86
2022/01/23 03:46:48;;;;;;;8.00;5.88;;;1.40;99.90;;;;;;6143787;28;20377;-85
2022/01/23 03:49:50;;;;;;;6.10;4.82;;;2.00;99.90;;;;;;6145113;28;20047;-84
2022/01/23 03:52:51;;;;;;;6.82;4.75;;;0.90;99.90;;;;;;6143196;28;20034;-86
2022/01/23 03:55:53;;;;;;;7.57;5.00;;;;;;;;;;6159118;28;20480;-86
2022/01/23 03:58:54;;;;;;;6.43;4.82;;;1.30;99.90;;;;;;6143113;28;20033;-88
2022/01/23 04:01:54;;;;;;;7.03;4.78;;;2.80;99.90;;;;;;6143019;28;20481;-86
2022/01/23 04:04:55;;;;;;;7.13;5.03;;;2.00;99.90;;;;;;6158720;28;20819;-86
2022/01/23 04:07:55;;;;;;;6.47;4.75;;;1.10;99.90;;;;;;6158841;28;20050;-86
2022/01/23 04:10:56;;;;;;;6.40;4.57;;;2.10;99.90;;;;;;6158184;28;20062;-85
2022/01/23 04:14:03;;;;;;;5.18;4.20;;;0.40;99.90;;;;;;6158638;28;20041;-86
2022/01/23 04:20:48;;;;;;;8.52;5.20;;;1.50;99.90;;;;;;6161310;28;20393;-87
2022/01/23 05:00:00;;;;;;;10.38;6.30;;;1.90;99.90;;;;;;6160303;28;20031;-88
2022/01/23 05:06:04;;;;;;;8.05;5.55;;;-0.60;99.90;;;;;;6157843;28;20035;-85
2022/01/23 05:09:07;;;;;;;9.55;5.72;;;-0.40;99.90;;;;;;6141548;28;20045;-87
2022/01/23 05:12:09;;;;;;;6.95;4.63;;;-0.30;99.90;;;;;;6141731;28;20136;-86
2022/01/23 05:15:11;;;;;;;8.63;5.20;;;-0.50;99.90;;;;;;6141175;28;20058;-86
2022/01/23 05:18:12;;;;;;;8.43;6.05;;;-0.60;99.90;;;;;;6158033;28;20062;-86
2022/01/23 05:24:55;;;;;;;11.30;6.28;;;-0.50;99.90;;;;;;6076556;29;20048;-86
2022/01/23 05:27:56;;;;;;;14.60;7.80;;;-1.30;99.90;;;;;;6046082;29;20067;-86
2022/01/23 05:30:56;;;;;;;16.92;8.75;;;1.50;99.90;;;;;;6039337;29;20128;-87
2022/01/23 05:33:57;;;;;;;33.47;11.00;;;1.60;99.90;;;;;;6045552;29;20123;-86
2022/01/23 05:36:58;;;;;;;20.45;9.57;;;1.20;99.90;;;;;;6045613;29;20360;-89
2022/01/23 05:39:59;;;;;;;10.25;6.10;;;0.80;99.90;;;;;;6046758;29;20033;-84
2022/01/23 05:42:59;;;;;;;9.07;5.25;;;0.30;99.90;;;;;;6045378;29;20040;-85
2022/01/23 05:46:00;;;;;;;6.40;4.70;;;-1.00;99.90;;;;;;6061600;29;20042;-85
2022/01/23 05:49:01;;;;;;;7.47;4.72;;;2.10;99.90;;;;;;6047897;29;20080;-85
2022/01/23 05:52:02;;;;;;;7.30;5.32;;;1.00;99.90;;;;;;6045246;29;20184;-88
2022/01/23 05:55:04;;;;;;;9.85;5.20;;;-0.30;99.90;;;;;;6083648;28;20030;-87
2022/01/23 05:58:04;;;;;;;8.50;4.85;;;-0.20;99.90;;;;;;6140321;28;20030;-86
2022/01/23 06:01:06;;;;;;;7.85;4.63;;;-0.60;99.90;;;;;;6140454;28;20037;-87
2022/01/23 06:04:06;;;;;;;7.32;5.10;;;1.70;99.90;;;;;;6156270;28;20112;-88
2022/01/23 06:07:07;;;;;;;7.93;5.28;;;1.80;99.90;;;;;;6156427;28;20038;-88
2022/01/23 06:10:08;;;;;;;9.90;6.60;;;0.90;99.90;;;;;;6139772;28;20035;-87
2022/01/23 06:13:09;;;;;;;8.63;5.53;;;-0.10;99.90;;;;;;6156692;28;20031;-87
2022/01/23 06:16:09;;;;;;;6.72;4.82;;;1.90;99.90;;;;;;6139144;28;20037;-86
2022/01/23 06:19:10;;;;;;;6.32;4.72;;;1.30;99.90;;;;;;6124199;28;20084;-86
2022/01/23 06:22:11;;;;;;;8.77;5.03;;;2.00;99.90;;;;;;6156044;28;20057;-86
2022/01/23 06:25:14;;;;;;;6.75;5.10;;;0.80;99.90;;;;;;6140619;28;20155;-88
2022/01/23 06:28:23;;;;;;;8.73;5.65;;;0.90;99.90;;;;;;6155813;28;20035;-87
2022/01/23 06:31:23;;;;;;;8.00;4.95;;;0.20;99.90;;;;;;6140246;28;20058;-88
2022/01/23 06:34:24;;;;;;;10.60;6.05;;;;;;;;;;6155547;28;20023;-86
2022/01/23 06:37:25;;;;;;;8.80;5.82;;;0.20;99.90;;;;;;6140054;28;20035;-88
2022/01/23 06:40:26;;;;;;;7.47;6.00;;;1.20;99.90;;;;;;6155957;28;20030;-86
2022/01/23 06:43:26;;;;;;;7.97;4.97;;;0.30;99.90;;;;;;6139313;28;20037;-87
2022/01/23 06:46:27;;;;;;;7.75;5.07;;;0.10;99.90;;;;;;6155689;28;20034;-86
2022/01/23 06:49:27;;;;;;;43.78;17.70;;;-0.40;99.90;;;;;;6155455;28;20369;-84
2022/01/23 06:52:28;;;;;;;777.75;297.33;;;0.10;99.90;;;;;;6141522;28;20035;-88
2022/01/23 06:55:29;;;;;;;419.55;161.35;;;2.10;99.90;;;;;;6155276;28;20030;-86
2022/01/23 06:58:29;;;;;;;101.72;49.17;;;2.10;99.90;;;;;;6139456;28;20698;-88
2022/01/23 07:01:30;;;;;;;57.03;27.63;;;0.90;99.90;;;;;;6154952;28;20523;-86
2022/01/23 07:04:30;;;;;;;9.63;6.32;;;1.00;99.90;;;;;;6137497;28;20026;-87
2022/01/23 07:07:31;;;;;;;10.50;5.88;;;2.90;99.90;;;;;;6139156;28;20110;-87
2022/01/23 07:10:31;;;;;;;9.90;6.03;;;1.90;99.90;;;;;;6154175;28;20051;-87
2022/01/23 07:13:32;;;;;;;9.55;6.35;;;0.30;99.90;;;;;;6155314;28;20078;-87
2022/01/23 07:16:33;;;;;;;14.73;8.40;;;0.70;99.90;;;;;;6155061;28;20031;-87
2022/01/23 07:19:33;;;;;;;14.68;9.00;;;2.50;99.90;;;;;;6155006;28;20516;-87
2022/01/23 07:22:34;;;;;;;12.23;8.10;;;1.40;99.90;;;;;;6155119;28;20038;-86
2022/01/23 07:25:35;;;;;;;16.35;11.15;;;-0.10;99.90;;;;;;6155226;28;20030;-87
2022/01/23 07:28:39;;;;;;;13.95;9.70;;;2.80;99.90;;;;;;6139075;28;20081;-88
2022/01/23 07:34:40;;;;;;;9.40;7.00;;;0.80;99.90;;;;;;6154355;28;20026;-87
2022/01/23 07:37:41;;;;;;;8.57;6.10;;;1.30;99.90;;;;;;6155138;28;20023;-86
2022/01/23 07:40:43;;;;;;;8.63;6.20;;;2.40;99.90;;;;;;6138636;28;20121;-87
2022/01/23 07:43:44;;;;;;;8.65;6.10;;;1.80;99.90;;;;;;6138384;28;20030;-86
2022/01/23 07:46:45;;;;;;;8.00;6.05;;;1.70;99.90;;;;;;6139150;28;20088;-86
2022/01/23 07:49:49;;;;;;;11.13;5.38;;;1.10;99.90;;;;;;6138919;28;20485;-88
2022/01/23 07:52:50;;;;;;;8.02;6.00;;;2.30;99.90;;;;;;6155078;28;20026;-89
2022/01/23 07:55:50;;;;;;;9.18;6.10;;;3.10;99.90;;;;;;6138675;28;20386;-89
2022/01/23 07:58:51;;;;;;;10.07;7.07;;;1.10;99.90;;;;;;6154833;28;20030;-88
2022/01/23 08:01:52;;;;;;;8.52;6.10;;;0.70;99.90;;;;;;6137582;28;20045;-88
2022/01/23 08:04:52;;;;;;;11.18;7.00;;;1.10;99.90;;;;;;6138112;28;20432;-87
2022/01/23 08:07:53;;;;;;;8.85;6.07;;;0.80;99.90;;;;;;6138741;28;20027;-84
2022/01/23 08:10:54;;;;;;;18.88;11.90;;;0.70;99.90;;;;;;6154056;28;20059;-86
2022/01/23 08:13:54;;;;;;;166.15;68.03;;;1.30;99.90;;;;;;6154747;28;20026;-88
2022/01/23 08:16:55;;;;;;;12.70;7.88;;;1.20;99.90;;;;;;6138005;28;20038;-87
2022/01/23 08:19:57;;;;;;;11.05;7.82;;;2.40;99.90;;;;;;6154464;28;20094;-84
2022/01/23 08:22:59;;;;;;;11.07;7.50;;;1.00;99.90;;;;;;6152277;28;20035;-82
2022/01/23 08:26:04;;;;;;;11.73;8.48;;;3.30;99.90;;;;;;6152936;28;20386;-81
2022/01/23 08:29:09;;;;;;;10.52;6.93;;;2.20;99.90;;;;;;6137761;28;20042;-82
2022/01/23 08:32:10;;;;;;;10.90;7.10;;;2.20;99.90;;;;;;6158318;28;20507;-82
2022/01/23 08:35:11;;;;;;;8.48;5.80;;;2.00;99.90;;;;;;6141640;28;20035;-81
2022/01/23 08:38:13;;;;;;;28.75;12.15;;;1.90;99.90;;;;;;6158006;28;20101;-79
2022/01/23 08:44:23;;;;;;;10.82;8.20;;;2.20;99.90;;;;;;6157858;28;20035;-80
2022/01/23 08:47:23;;;;;;;21.15;11.35;;;1.70;99.90;;;;;;6139490;28;20097;-79
2022/01/23 08:50:25;;;;;;;11.93;7.78;;;1.70;99.90;;;;;;6141320;28;20086;-80
2022/01/23 08:53:26;;;;;;;44.33;22.63;;;2.30;99.90;;;;;;6157399;28;20019;-80
2022/01/23 08:56:26;;;;;;;16.40;11.23;;;2.60;99.90;;;;;;6154723;28;20038;-79
2022/01/23 08:59:27;;;;;;;9.20;7.28;;;2.90;99.90;;;;;;6153871;28;20035;-81
2022/01/23 09:02:29;;;;;;;10.68;7.57;;;2.70;99.90;;;;;;6155866;28;20036;-82
2022/01/23 09:05:29;;;;;;;19.00;11.13;;;2.80;99.90;;;;;;6140655;28;20027;-79
2022/01/23 09:08:30;;;;;;;11.70;8.63;;;2.40;99.90;;;;;;6155459;28;20137;-83
2022/01/23 09:14:34;;;;;;;8.98;6.22;;;3.80;99.90;;;;;;6157169;28;20058;-85
2022/01/23 09:17:34;;;;;;;14.73;10.25;;;4.60;99.90;;;;;;6140047;28;20366;-85
2022/01/23 09:20:35;;;;;;;9.77;7.13;;;3.80;99.90;;;;;;6156345;28;20038;-83
2022/01/23 09:23:36;;;;;;;8.43;5.80;;;3.90;99.90;;;;;;6156222;28;20034;-83
2022/01/23 09:26:37;;;;;;;6.68;5.57;;;4.20;99.90;;;;;;6139363;28;20034;-83
2022/01/23 09:29:40;;;;;;;8.75;6.35;;;4.40;99.90;;;;;;6138902;28;20046;-82
2022/01/23 09:32:42;;;;;;;10.02;6.18;;;4.10;99.90;;;;;;6155748;28;20136;-81
2022/01/23 09:35:42;;;;;;;10.95;6.68;;;4.00;99.90;;;;;;6123858;28;20119;-83
2022/01/23 09:38:43;;;;;;;11.02;6.40;;;3.90;99.90;;;;;;6156740;28;20027;-83
2022/01/23 09:41:55;;;;;;;12.63;8.48;;;3.40;99.90;;;;;;6139811;28;20034;-82
2022/01/23 09:45:01;;;;;;;10.15;6.82;;;4.00;99.90;;;;;;6141076;28;20470;-84
2022/01/23 09:48:02;;;;;;;9.18;5.95;;;4.30;99.90;;;;;;6139507;28;20058;-85
2022/01/23 09:51:03;;;;;;;12.52;8.90;;;4.80;99.90;;;;;;6154967;28;20039;-82
2022/01/23 09:54:04;;;;;;;10.77;6.03;;;5.20;99.90;;;;;;6155227;28;20031;-84
2022/01/23 09:57:06;;;;;;;8.25;6.20;;;6.10;99.90;;;;;;6153647;28;20046;-82
2022/01/23 10:00:11;;;;;;;6.35;5.00;;;6.80;99.90;;;;;;6156530;28;20385;-82
2022/01/23 10:03:12;;;;;;;7.47;5.40;;;7.70;99.90;;;;;;6156646;28;20033;-83
2022/01/23 10:06:13;;;;;;;6.80;5.03;;;8.20;99.90;;;;;;6156016;28;20023;-85
2022/01/23 10:09:14;;;;;;;8.48;7.20;;;9.10;99.90;;;;;;6155995;28;20098;-82
2022/01/23 10:12:15;;;;;;;13.93;11.32;;;9.70;99.90;;;;;;6148401;28;20050;-83
2022/01/23 10:15:16;;;;;;;11.20;9.25;;;9.80;99.90;;;;;;6148092;28;20019;-84
2022/01/23 10:18:18;;;;;;;7.10;5.80;;;10.50;98.60;;;;;;6147230;28;20466;-85
2022/01/23 10:21:18;;;;;;;6.07;4.57;;;11.20;95.50;;;;;;6131397;29;20046;-84
2022/01/23 10:24:19;;;;;;;6.13;4.72;;;11.80;91.50;;;;;;6146971;28;20360;-86
2022/01/23 10:27:22;;;;;;;4.60;3.47;;;12.30;89.40;;;;;;6147360;28;20027;-86
2022/01/23 10:30:24;;;;;;;3.42;2.80;;;12.30;82.00;;;;;;6131297;29;20465;-86
2022/01/23 10:33:53;;;;;;;2.83;2.53;;;11.70;81.30;;;;;;6146107;28;20043;-84
2022/01/23 10:36:54;;;;;;;3.78;3.15;;;12.00;82.20;;;;;;6145766;28;20501;-85
2022/01/23 10:39:56;;;;;;;2.78;2.40;;;12.20;80.30;;;;;;6146779;28;20033;-85
2022/01/23 10:46:40;;;;;;;3.22;2.60;;;11.80;80.60;;;;;;6127453;28;20491;-83
2022/01/23 10:49:56;;;;;;;6.43;2.95;;;12.20;78.80;;;;;;6133433;29;20102;-84
2022/01/23 10:53:00;;;;;;;2.92;2.63;;;12.40;78.30;;;;;;6143784;28;20367;-80
2022/01/23 10:56:05;;;;;;;4.03;2.60;;;12.00;79.60;;;;;;6145800;29;20054;-82
2022/01/23 10:59:11;;;;;;;3.78;3.03;;;12.20;76.60;;;;;;6145671;28;20090;-82
2022/01/23 11:02:21;;;;;;;3.72;3.08;;;12.20;78.30;;;;;;6129889;29;20081;-81
2022/01/23 11:05:31;;;;;;;12.07;7.65;;;11.60;78.80;;;;;;6129984;29;20090;-81
2022/01/23 11:08:31;;;;;;;10.18;5.43;;;11.00;79.90;;;;;;6145724;29;20518;-82
2022/01/23 11:11:45;;;;;;;5.45;3.97;;;10.90;82.30;;;;;;6145359;29;20051;-79
2022/01/23 11:18:15;;;;;;;5.57;3.15;;;10.60;83.10;;;;;;6145686;28;20035;-79
2022/01/23 11:21:21;;;;;;;4.68;4.07;;;10.10;85.50;;;;;;6145276;28;20054;-79
2022/01/23 11:24:22;;;;;;;15.10;3.92;;;10.40;85.20;;;;;;6145263;29;20034;-78
2022/01/23 11:27:23;;;;;;;10.18;4.70;;;10.80;84.90;;;;;;6129223;29;20031;-84
2022/01/23 11:30:23;;;;;;;4.88;3.25;;;11.10;92.90;;;;;;6129149;29;20053;-80
2022/01/23 11:33:24;;;;;;;4.15;3.47;;;11.20;84.10;;;;;;6144884;28;20119;-80
2022/01/23 11:36:25;;;;;;;4.45;3.08;;;10.50;84.80;;;;;;6128991;29;20035;-82
2022/01/23 11:39:41;;;;;;;3.53;2.72;;;10.30;86.70;;;;;;6129522;28;20129;-82
2022/01/23 11:56:41;;;;;;;3.42;2.92;;;9.60;89.40;;;;;;6145278;28;20040;-80
2022/01/23 11:59:47;;;;;;;3.25;2.90;;;9.60;90.20;;;;;;6144460;28;20043;-84
2022/01/23 12:03:17;;;;;;;4.20;3.13;;;9.80;90.00;;;;;;6143852;28;20122;-81
2022/01/23 12:06:20;;;;;;;4.18;2.97;;;9.70;90.20;;;;;;6091121;29;20044;-84
2022/01/23 12:09:21;;;;;;;4.03;3.45;;;9.60;90.50;;;;;;6107267;29;20075;-83
2022/01/23 12:18:48;;;;;;;4.03;2.75;;;9.50;90.80;;;;;;6110708;29;20094;-81
2022/01/23 12:21:50;;;;;;;5.25;3.25;;;9.20;91.50;;;;;;6106838;29;20372;-81
2022/01/23 12:24:54;;;;;;;7.50;3.15;;;9.10;91.90;;;;;;6107601;29;20040;-81
2022/01/23 12:28:10;;;;;;;3.75;3.20;;;9.00;93.20;;;;;;6091722;29;20597;-80
2022/01/23 12:31:14;;;;;;;3.45;3.15;;;9.10;92.10;;;;;;6092323;29;20039;-82
2022/01/23 12:34:14;;;;;;;3.33;3.03;;;8.70;93.20;;;;;;6123861;29;20151;-84
2022/01/23 12:37:15;;;;;;;4.30;3.40;;;8.40;94.00;;;;;;6122084;29;20134;-82
2022/01/23 12:40:27;;;;;;;3.30;2.70;;;8.20;94.40;;;;;;6091536;29;20134;-83
2022/01/23 12:43:36;;;;;;;5.20;3.20;;;8.20;95.10;;;;;;6112693;28;20039;-83
2022/01/23 12:46:40;;;;;;;4.53;3.42;;;8.00;95.10;;;;;;6148457;29;20123;-83
2022/01/23 12:49:51;;;;;;;4.50;3.38;;;7.70;96.00;;;;;;6147467;28;20043;-82
2022/01/23 12:52:52;;;;;;;4.82;3.20;;;7.40;96.90;;;;;;6132420;29;20032;-83
2022/01/23 12:56:10;;;;;;;4.45;3.55;;;7.10;98.80;;;;;;6148534;28;20080;-84
2022/01/23 12:59:23;;;;;;;5.05;3.38;;;6.70;99.20;;;;;;6118140;29;20421;-83
2022/01/23 13:02:27;;;;;;;4.07;3.10;;;7.10;99.90;;;;;;6148524;28;20139;-81
2022/01/23 13:05:28;;;;;;;4.40;3.25;;;6.90;99.90;;;;;;6148875;28;20050;-88
2022/01/23 13:08:32;;;;;;;3.97;3.50;;;7.00;99.90;;;;;;6148418;29;20043;-81
2022/01/23 13:11:53;;;;;;;3.60;3.05;;;7.00;99.90;;;;;;6148208;29;20075;-83
2022/01/23 13:18:17;;;;;;;3.72;3.33;;;7.10;99.90;;;;;;6148343;28;20035;-82
2022/01/23 13:31:43;;;;;;;4.20;3.17;;;7.10;99.90;;;;;;6057422;29;20616;-81
2022/01/23 13:34:57;;;;;;;4.80;3.35;;;7.00;99.90;;;;;;6060619;29;20113;-80
2022/01/23 13:37:59;;;;;;;5.07;3.47;;;6.80;99.90;;;;;;6044820;29;20040;-81
2022/01/23 13:41:09;;;;;;;5.82;3.03;;;6.70;99.90;;;;;;6058380;29;20773;-80
2022/01/23 13:57:37;;;;;;;8.68;3.97;;;6.60;99.90;;;;;;6049470;29;20081;-78
2022/01/23 14:00:38;;;;;;;4.50;3.40;;;6.60;99.90;;;;;;6133398;28;20070;-82
2022/01/23 14:03:39;;;;;;;4.53;3.47;;;6.60;99.90;;;;;;6147510;29;20027;-82
2022/01/23 14:06:39;;;;;;;4.93;3.60;;;6.40;99.90;;;;;;6147032;29;20488;-85
2022/01/23 14:09:44;;;;;;;4.53;3.30;;;7.80;99.90;;;;;;6147401;28;20046;-86
2022/01/23 14:12:46;;;;;;;5.13;3.35;;;6.40;99.90;;;;;;6131662;29;20055;-84
2022/01/23 14:15:48;;;;;;;7.05;4.45;;;6.30;99.90;;;;;;6131320;29;20043;-85
2022/01/23 14:18:49;;;;;;;7.78;3.72;;;6.30;99.90;;;;;;6147201;28;20038;-84
2022/01/23 14:21:59;;;;;;;5.47;4.47;;;6.40;99.90;;;;;;6144456;28;20063;-82
2022/01/23 14:25:10;;;;;;;6.68;3.75;;;6.30;99.90;;;;;;6130753;29;20035;-80
2022/01/23 14:28:20;;;;;;;13.15;9.00;;;6.30;99.90;;;;;;6145129;28;20039;-81
2022/01/23 14:31:22;;;;;;;4.50;3.85;;;6.30;99.90;;;;;;6146759;29;20047;-80
2022/01/23 14:34:24;;;;;;;8.00;4.43;;;6.30;99.90;;;;;;6145900;28;20027;-80
2022/01/23 14:37:25;;;;;;;5.97;3.72;;;6.30;99.90;;;;;;6128373;29;20032;-80
2022/01/23 14:40:26;;;;;;;5.22;4.55;;;6.20;99.90;;;;;;6129468;29;20050;-82
2022/01/23 14:43:40;;;;;;;40.67;34.20;;;6.90;99.90;;;;;;6146736;28;20031;-81
2022/01/23 14:46:41;;;;;;;9.27;7.05;;;6.10;99.90;;;;;;6115083;28;20093;-80
2022/01/23 14:49:45;;;;;;;8.30;6.75;;;6.10;99.90;;;;;;6145741;29;20043;-80
2022/01/23 14:52:48;;;;;;;8.27;5.47;;;6.00;99.90;;;;;;6145234;28;20031;-80
2022/01/23 14:55:49;;;;;;;;;;;6.00;99.90;;;;;;6146080;29;20114;-82
2022/01/23 14:58:50;;;;;;;6.28;4.40;;;5.80;99.90;;;;;;6145355;28;20400;-80
2022/01/23 15:01:50;;;;;;;8.07;5.90;;;5.70;99.90;;;;;;6129786;29;20032;-80
2022/01/23 15:04:51;;;;;;;6.80;4.43;;;6.30;99.90;;;;;;6145280;28;20031;-83
2022/01/23 15:07:52;;;;;;;4.55;4.03;;;5.70;99.90;;;;;;6145686;29;20078;-80
2022/01/23 15:10:55;;;;;;;5.80;4.57;;;5.70;99.90;;;;;;6136485;28;20054;-81
2022/01/23 15:13:55;;;;;;;;;;;6.20;99.90;;;;;;6153572;28;20034;-80
2022/01/23 15:16:56;;;;;;;9.48;7.13;;;5.60;99.90;;;;;;6153146;28;19917;-81
2022/01/23 15:19:57;;;;;;;56.75;31.95;;;7.00;99.90;;;;;;6152724;28;20473;-81
2022/01/23 15:22:57;;;;;;;83.97;44.40;;;5.50;99.90;;;;;;6153289;28;20066;-81
2022/01/23 15:25:58;;;;;;;45.85;22.15;;;5.90;99.90;;;;;;6153037;28;20023;-81
2022/01/23 15:28:58;;;;;;;52.33;29.00;;;5.30;99.90;;;;;;6152966;28;20557;-80
2022/01/23 15:31:59;;;;;;;6.30;4.90;;;5.20;99.90;;;;;;6136906;28;20042;-81
2022/01/23 15:35:00;;;;;;;9.35;6.75;;;5.70;99.90;;;;;;6153261;28;20114;-80
2022/01/23 15:38:00;;;;;;;6.13;4.80;;;5.00;99.90;;;;;;6153017;28;20366;-83
2022/01/23 15:41:01;;;;;;;7.32;4.22;;;5.00;99.90;;;;;;6136802;28;20703;-82
2022/01/23 15:44:02;;;;;;;5.65;3.97;;;4.90;99.90;;;;;;6152763;28;20457;-80
2022/01/23 15:47:04;;;;;;;5.13;3.63;;;4.80;99.90;;;;;;6109263;28;20033;-81
2022/01/23 15:50:05;;;;;;;6.30;4.50;;;4.70;99.90;;;;;;6152577;28;20062;-81
2022/01/23 15:53:05;;;;;;;8.85;4.57;;;4.60;99.90;;;;;;6136166;28;20784;-81
2022/01/23 15:56:06;;;;;;;6.80;4.15;;;4.70;99.90;;;;;;6152960;28;20062;-81
2022/01/23 15:59:07;;;;;;;5.25;4.05;;;4.40;99.90;;;;;;6152479;28;20140;-83
2022/01/23 16:02:08;;;;;;;5.30;4.03;;;4.80;99.90;;;;;;6136813;28;20034;-81
2022/01/23 16:05:08;;;;;;;6.95;4.93;;;4.30;99.90;;;;;;6136358;28;20473;-81
2022/01/23 16:08:09;;;;;;;10.05;5.07;;;4.20;99.90;;;;;;6152319;28;20084;-82
2022/01/23 16:11:10;;;;;;;5.55;4.50;;;4.00;99.90;;;;;;6152318;28;20050;-81
2022/01/23 16:14:10;;;;;;;7.43;5.45;;;4.20;99.90;;;;;;6135821;28;20457;-84
2022/01/23 16:17:11;;;;;;;8.30;5.00;;;4.10;99.90;;;;;;6152550;28;20030;-81
2022/01/23 16:20:12;;;;;;;9.05;4.55;;;4.00;99.90;;;;;;6135939;28;20034;-82
2022/01/23 16:23:13;;;;;;;5.80;5.03;;;3.90;99.90;;;;;;6135930;28;20478;-81
2022/01/23 16:26:14;;;;;;;10.68;6.30;;;4.60;99.90;;;;;;6136311;28;20586;-83
2022/01/23 16:29:14;;;;;;;10.68;7.22;;;3.60;99.90;;;;;;6136156;28;20178;-81
2022/01/23 16:32:15;;;;;;;8.45;5.65;;;4.00;99.90;;;;;;6152537;28;20480;-79
2022/01/23 16:35:19;;;;;;;8.00;5.63;;;3.50;99.90;;;;;;6152960;28;20026;-82
2022/01/23 16:38:20;;;;;;;15.60;9.77;;;3.20;99.90;;;;;;6152905;28;20027;-81
2022/01/23 16:41:21;;;;;;;7.57;6.05;;;5.20;99.90;;;;;;6137479;28;20105;-81
2022/01/23 16:44:22;;;;;;;6.60;5.22;;;3.40;99.90;;;;;;6153236;28;20038;-80
2022/01/23 16:47:22;;;;;;;6.22;4.95;;;3.30;99.90;;;;;;6135810;28;20058;-80
2022/01/23 16:50:24;;;;;;;8.23;5.40;;;3.80;99.90;;;;;;6152989;28;20400;-78
2022/01/23 16:53:25;;;;;;;8.70;6.80;;;2.90;99.90;;;;;;6173572;28;20105;-81
2022/01/23 16:56:25;;;;;;;10.90;7.20;;;3.60;99.90;;;;;;6138798;28;20078;-81
2022/01/23 16:59:26;;;;;;;8.25;5.75;;;3.30;99.90;;;;;;6156038;28;20085;-82
2022/01/23 17:02:27;;;;;;;8.40;7.35;;;2.80;99.90;;;;;;6156197;28;20022;-81
2022/01/23 17:05:28;;;;;;;15.45;10.70;;;2.40;99.90;;;;;;6156106;28;20030;-80
2022/01/23 17:08:29;;;;;;;10.55;6.85;;;3.20;99.90;;;;;;6155861;28;20038;-80
2022/01/23 17:11:29;;;;;;;9.25;6.20;;;2.90;99.90;;;;;;6154881;28;20042;-80
2022/01/23 17:14:30;;;;;;;8.88;5.70;;;3.40;99.90;;;;;;6155718;28;20111;-81
2022/01/23 17:17:30;;;;;;;10.27;7.13;;;2.70;99.90;;;;;;6139748;28;20035;-79
2022/01/23 17:20:31;;;;;;;11.25;7.63;;;2.70;99.90;;;;;;6137628;28;20085;-82
2022/01/23 17:23:32;;;;;;;6.13;5.13;;;3.40;99.90;;;;;;6140164;28;20464;-80
2022/01/23 17:26:33;;;;;;;8.15;6.07;;;3.40;99.90;;;;;;6139185;28;20034;-80
2022/01/23 17:29:34;;;;;;;7.22;6.00;;;2.60;99.90;;;;;;6155869;28;20046;-82
2022/01/23 17:32:34;;;;;;;8.68;5.95;;;3.30;99.90;;;;;;6136903;28;20034;-85
2022/01/23 17:35:35;;;;;;;8.90;5.90;;;4.90;99.90;;;;;;6139347;28;20397;-81
2022/01/23 17:38:38;;;;;;;8.07;6.40;;;2.40;99.90;;;;;;6139032;28;20042;-81
2022/01/23 17:41:40;;;;;;;7.90;6.55;;;2.20;99.90;;;;;;6155313;28;20039;-81
2022/01/23 17:44:46;;;;;;;8.63;6.35;;;2.40;99.90;;;;;;6156136;28;20027;-82
2022/01/23 17:50:50;;;;;;;8.30;6.47;;;2.10;99.90;;;;;;6155836;28;20486;-79
2022/01/23 17:53:53;;;;;;;10.02;7.22;;;2.80;99.90;;;;;;6154742;28;20045;-81
2022/01/23 17:56:53;;;;;;;9.55;6.80;;;3.20;99.90;;;;;;6153000;28;20050;-80
2022/01/23 17:59:54;;;;;;;8.15;6.60;;;2.50;99.90;;;;;;6155089;28;20576;-81
2022/01/23 18:02:56;;;;;;;15.77;9.82;;;2.70;99.90;;;;;;6152937;28;20525;-81
2022/01/23 18:05:59;;;;;;;33.60;18.17;;;2.20;99.90;;;;;;6138739;28;20085;-81
2022/01/23 18:09:00;;;;;;;11.13;7.07;;;2.70;99.90;;;;;;6155305;28;20043;-81
2022/01/23 18:12:01;;;;;;;9.35;6.75;;;2.00;99.90;;;;;;6138437;28;20058;-80
2022/01/23 18:15:03;;;;;;;8.15;6.20;;;2.00;99.90;;;;;;6138495;28;20122;-81
2022/01/23 18:18:04;;;;;;;14.40;8.90;;;1.90;99.90;;;;;;6138767;28;20035;-79
2022/01/23 18:21:05;;;;;;;23.00;14.17;;;1.80;99.90;;;;;;6137400;28;20397;-81
2022/01/23 18:24:07;;;;;;;22.02;12.15;;;3.00;99.90;;;;;;6138981;28;20062;-77
2022/01/23 18:27:09;;;;;;;12.32;7.75;;;1.80;99.90;;;;;;6154913;28;20778;-81
2022/01/23 18:30:11;;;;;;;15.00;8.77;;;1.80;99.90;;;;;;6138970;28;20054;-81
2022/01/23 18:33:12;;;;;;;9.00;6.30;;;1.80;99.90;;;;;;6138338;28;20042;-79
2022/01/23 18:36:12;;;;;;;8.60;6.22;;;1.80;99.90;;;;;;6154724;28;20053;-80
2022/01/23 18:39:13;;;;;;;10.93;6.68;;;2.40;99.90;;;;;;6154464;28;20109;-79
2022/01/23 18:42:14;;;;;;;12.05;7.75;;;2.40;99.90;;;;;;6153966;28;20389;-80
2022/01/23 18:45:14;;;;;;;10.07;6.93;;;3.30;99.90;;;;;;6154895;28;20046;-78
2022/01/23 18:48:15;;;;;;;8.82;6.28;;;1.70;99.90;;;;;;6153838;28;20492;-82
2022/01/23 18:51:23;;;;;;;10.55;6.60;;;1.60;99.90;;;;;;6137037;28;20381;-81
2022/01/23 18:54:39;;;;;;;11.48;7.43;;;2.00;99.90;;;;;;6153634;28;20358;-78
2022/01/23 18:57:46;;;;;;;9.32;7.70;;;1.30;99.90;;;;;;6155904;28;20031;-80
2022/01/23 19:00:49;;;;;;;10.23;7.28;;;0.90;99.90;;;;;;6137498;28;20477;-81
2022/01/23 19:07:02;;;;;;;10.52;7.63;;;2.90;99.90;;;;;;6154544;28;20031;-84
2022/01/23 19:10:03;;;;;;;11.77;8.60;;;0.90;99.90;;;;;;6139122;28;20093;-86
2022/01/23 19:13:09;;;;;;;13.00;8.17;;;1.00;99.90;;;;;;6136810;28;20022;-82
2022/01/23 19:16:10;;;;;;;12.57;8.07;;;2.20;99.90;;;;;;6138060;28;20094;-86
2022/01/23 19:19:11;;;;;;;11.15;8.35;;;2.70;99.90;;;;;;6153671;28;20038;-83
2022/01/23 19:22:11;;;;;;;11.48;7.85;;;1.10;99.90;;;;;;6137311;28;20121;-85
2022/01/23 19:25:13;;;;;;;13.63;8.13;;;2.80;99.90;;;;;;6153874;28;20381;-84
2022/01/23 19:28:14;;;;;;;21.35;13.90;;;1.90;99.90;;;;;;6137389;28;20038;-83
2022/01/23 19:31:20;;;;;;;14.18;9.00;;;1.10;99.90;;;;;;6154515;28;20481;-85
2022/01/23 19:34:20;;;;;;;15.95;10.90;;;3.20;99.90;;;;;;6152627;28;20030;-86
2022/01/23 19:37:21;;;;;;;12.25;9.25;;;1.30;99.90;;;;;;6152567;28;20041;-81